Time;durP1;ratioP1;P1;durP2;ratioP2;P2;SDS_P1;SDS_P2;PMS_P1;PMS_P2;Temp;Humidity;BMP_temperature;BMP_pressure;BME280_temperature;BME280_humidity;BME280_pressure;Samples;Min_cycle;Max_cycle;Signal;HPM_P1;HPM_P2
2022/08/09 00:00:44;;;;;;;4.18;3.40;;;;;;;19.53;62.62;102910.69;4957977;28;20080;-50
2022/08/09 00:03:09;;;;;;;6.45;3.40;;;;;;;19.55;62.50;102901.91;4982207;28;20040;-52
2022/08/09 00:05:35;;;;;;;5.32;3.58;;;;;;;19.56;62.53;102910.75;4987165;28;21078;-53
2022/08/09 00:08:00;;;;;;;6.95;3.22;;;;;;;19.60;62.36;102910.78;4970841;28;20025;-50
2022/08/09 00:10:26;;;;;;;7.68;3.60;;;;;;;19.56;62.55;102905.44;4980079;28;20036;-49
2022/08/09 00:12:52;;;;;;;5.72;3.40;;;;;;;19.52;62.64;102906.31;4965334;28;20029;-52
2022/08/09 00:15:21;;;;;;;5.25;3.40;;;;;;;19.47;62.98;102906.25;4984443;28;20112;-52
2022/08/09 00:17:46;;;;;;;6.50;3.22;;;;;;;19.44;62.90;102911.47;4968860;28;20033;-53
2022/08/09 00:20:11;;;;;;;5.93;3.22;;;;;;;19.43;63.01;102907.94;4973605;28;20033;-53
2022/08/09 00:22:37;;;;;;;6.13;3.63;;;;;;;19.45;62.78;102905.31;4981384;28;20195;-52
2022/08/09 00:25:03;;;;;;;5.75;3.40;;;;;;;19.39;63.04;102898.19;4970565;28;21299;-54
2022/08/09 00:27:28;;;;;;;6.07;3.30;;;;;;;19.39;62.96;102898.19;4982779;28;20401;-52
2022/08/09 00:29:53;;;;;;;5.70;3.30;;;;;;;19.11;64.08;102901.44;4969865;28;20045;-52
2022/08/09 00:32:20;;;;;;;4.60;3.25;;;;;;;19.01;64.53;102897.84;4979178;28;20060;-54
2022/08/09 00:34:46;;;;;;;5.35;3.40;;;;;;;18.97;64.62;102896.00;4972986;28;20108;-52
2022/08/09 00:37:11;;;;;;;5.50;3.60;;;;;;;18.95;64.78;102902.16;4968985;28;20560;-51
2022/08/09 00:39:37;;;;;;;5.30;3.70;;;;;;;18.96;65.12;102896.03;4973403;28;20075;-53
2022/08/09 00:42:03;;;;;;;5.40;3.83;;;;;;;18.99;65.04;102894.28;4976545;28;21244;-50
2022/08/09 00:44:28;;;;;;;7.50;3.90;;;;;;;19.03;64.76;102904.00;4976404;28;20153;-53
2022/08/09 00:46:54;;;;;;;6.25;3.70;;;;;;;18.96;65.40;102904.84;4980232;28;20119;-50
2022/08/09 00:49:20;;;;;;;5.80;3.97;;;;;;;18.98;65.55;102911.00;4977353;28;20571;-53
2022/08/09 00:51:47;;;;;;;5.65;3.80;;;;;;;18.89;65.37;102903.00;4985316;28;20191;-53
2022/08/09 00:54:13;;;;;;;5.95;3.22;;;;;;;18.89;65.49;102907.38;4977000;28;20025;-50
2022/08/09 00:56:39;;;;;;;5.53;3.85;;;;;;;18.85;65.45;102909.09;4982681;28;20029;-51
2022/08/09 00:59:05;;;;;;;7.85;4.10;;;;;;;18.82;65.56;102903.78;4968197;28;20051;-48
2022/08/09 01:01:40;;;;;;;5.32;3.75;;;;;;;18.87;65.93;102903.84;4986810;28;20620;-54
2022/08/09 01:04:24;;;;;;;4.75;3.58;;;;;;;18.86;65.73;102908.22;4971356;28;20342;-51
2022/08/09 01:06:56;;;;;;;;;;;;;;;18.89;65.86;102908.28;4975326;28;20033;-50
2022/08/09 01:09:42;;;;;;;6.25;3.78;;;;;;;18.86;65.72;102909.97;4975848;28;19951;-51
2022/08/09 01:12:19;;;;;;;6.43;3.60;;;;;;;18.86;65.46;102910.88;4976393;28;20377;-53
2022/08/09 01:14:54;;;;;;;11.13;4.28;;;;;;;18.79;65.96;102911.66;4963663;28;20050;-51
2022/08/09 01:17:42;;;;;;;7.30;4.43;;;;;;;18.74;66.42;102905.44;4990855;28;20160;-50
2022/08/09 01:20:50;;;;;;;5.35;3.80;;;;;;;18.76;66.34;102909.00;4975709;28;20038;-52
2022/08/09 01:23:27;;;;;;;6.38;4.15;;;;;;;18.76;66.40;102908.09;4964697;28;20052;-54
2022/08/09 01:26:19;;;;;;;6.15;4.03;;;;;;;18.72;66.52;102901.91;4978917;28;20034;-53
2022/08/09 01:28:49;;;;;;;5.60;4.20;;;;;;;18.73;66.33;102898.38;4992345;28;20114;-52
2022/08/09 01:31:19;;;;;;;4.75;3.63;;;;;;;18.71;66.45;102907.19;4975428;28;20033;-52
2022/08/09 01:33:47;;;;;;;5.60;3.97;;;;;;;18.74;66.63;102915.13;4984039;28;20564;-51
2022/08/09 01:36:19;;;;;;;5.38;3.90;;;;;;;18.62;66.90;102913.22;4981358;28;20030;-50
2022/08/09 01:38:47;;;;;;;7.78;4.22;;;;;;;18.77;66.22;102915.19;4972893;28;20047;-50
2022/08/09 01:41:19;;;;;;;6.40;4.35;;;;;;;18.78;66.35;102906.38;4977946;28;20540;-53
2022/08/09 01:43:49;;;;;;;6.07;4.57;;;;;;;18.77;66.57;102897.56;4978082;28;20041;-51
2022/08/09 01:46:15;;;;;;;11.43;5.00;;;;;;;18.73;67.45;102908.94;4986713;28;20172;-53
2022/08/09 01:48:46;;;;;;;6.50;4.70;;;;;;;18.74;67.76;102901.91;4976265;28;20029;-48
2022/08/09 01:51:12;;;;;;;8.40;5.05;;;;;;;18.70;68.06;102902.75;4981205;28;20036;-52
2022/08/09 01:53:45;;;;;;;7.57;4.40;;;;;;;18.84;67.25;102901.16;4982140;28;20587;-52
2022/08/09 01:56:12;;;;;;;8.43;5.07;;;;;;;18.78;67.36;102899.34;4977712;28;20042;-52
2022/08/09 01:58:42;;;;;;;8.65;4.70;;;;;;;18.85;67.35;102903.81;4976221;28;20014;-51
2022/08/09 02:01:09;;;;;;;8.10;5.20;;;;;;;18.78;68.10;102906.38;4970290;28;20033;-51
2022/08/09 02:03:36;;;;;;;8.00;5.03;;;;;;;18.80;67.54;102913.44;4981168;28;20029;-50
2022/08/09 02:06:06;;;;;;;8.32;5.30;;;;;;;18.77;67.75;102918.72;4966119;28;20108;-52
2022/08/09 02:08:35;;;;;;;9.02;5.10;;;;;;;18.72;67.54;102912.50;4975129;28;20420;-50
2022/08/09 02:11:06;;;;;;;9.25;5.38;;;;;;;18.66;67.39;102916.81;4980571;28;20333;-50
2022/08/09 02:13:33;;;;;;;9.95;5.18;;;;;;;18.92;66.69;102921.50;4982756;28;20053;-52
2022/08/09 02:15:59;;;;;;;7.90;5.32;;;;;;;18.54;67.44;102920.16;4975751;28;20412;-53
2022/08/09 02:18:29;;;;;;;9.20;4.93;;;;;;;18.38;68.36;102923.44;4975699;28;20025;-53
2022/08/09 02:21:02;;;;;;;6.88;5.38;;;;;;;18.21;68.72;102908.25;5013133;28;20644;-54
2022/08/09 02:23:39;;;;;;;10.90;5.70;;;;;;;18.19;69.28;102917.00;4972864;28;20029;-54
2022/08/09 02:26:09;;;;;;;8.65;5.18;;;;;;;18.20;69.09;102910.84;4962509;28;20351;-54
2022/08/09 02:28:56;;;;;;;7.07;5.07;;;;;;;18.26;68.89;102910.94;4983980;28;20516;-53
2022/08/09 02:31:29;;;;;;;8.20;5.10;;;;;;;18.28;68.81;102909.22;4981371;28;20550;-53
2022/08/09 02:33:59;;;;;;;8.03;5.30;;;;;;;18.31;68.34;102905.72;4991946;28;20144;-53
2022/08/09 02:36:40;;;;;;;8.95;5.10;;;;;;;18.28;68.01;102903.06;4979562;28;20347;-52
2022/08/09 02:39:12;;;;;;;7.63;4.90;;;;;;;18.25;68.17;102893.31;4983244;28;20523;-52
2022/08/09 02:41:42;;;;;;;6.70;4.88;;;;;;;18.22;68.00;102901.22;4988960;28;20101;-51
2022/08/09 02:44:13;;;;;;;9.45;5.20;;;;;;;18.21;67.69;102902.06;4989181;28;20046;-56
2022/08/09 02:46:50;;;;;;;8.88;5.45;;;;;;;18.17;68.01;102901.16;4991837;28;20079;-52
2022/08/09 02:49:20;;;;;;;8.88;5.10;;;;;;;18.14;67.21;102903.75;4980615;28;20037;-52
2022/08/09 02:51:56;;;;;;;7.18;5.20;;;;;;;18.12;67.71;102896.66;4983409;28;20032;-53
2022/08/09 02:54:23;;;;;;;8.77;5.55;;;;;;;17.98;68.03;102888.56;4980341;28;20033;-52
2022/08/09 02:56:51;;;;;;;8.52;5.63;;;;;;;17.95;68.53;102890.25;4975167;28;20190;-53
2022/08/09 02:59:19;;;;;;;7.85;5.70;;;;;;;17.88;68.82;102888.38;4991302;28;20528;-53
2022/08/09 03:01:46;;;;;;;7.78;5.60;;;;;;;17.87;68.79;102889.25;4988609;28;20096;-52
2022/08/09 03:04:13;;;;;;;9.48;6.03;;;;;;;17.83;68.49;102885.66;4979977;28;20040;-49
2022/08/09 03:06:43;;;;;;;9.43;5.80;;;;;;;17.78;69.00;102887.34;4985032;28;20042;-53
2022/08/09 03:09:11;;;;;;;9.98;5.72;;;;;;;17.73;69.54;102884.66;4980092;28;20048;-53
2022/08/09 03:11:41;;;;;;;8.20;5.75;;;;;;;17.70;69.18;102879.31;4981078;28;20033;-53
2022/08/09 03:14:07;;;;;;;10.07;6.45;;;;;;;17.62;68.99;102880.97;4983064;28;20060;-53
2022/08/09 03:16:34;;;;;;;7.80;5.60;;;;;;;17.62;69.29;102883.59;4988709;28;20029;-55
2022/08/09 03:19:01;;;;;;;9.50;5.43;;;;;;;17.66;69.23;102884.53;4973893;28;20115;-53
2022/08/09 03:21:28;;;;;;;7.55;5.47;;;;;;;17.70;69.04;102881.94;4981365;28;20539;-53
2022/08/09 03:23:53;;;;;;;8.88;5.68;;;;;;;17.69;69.05;102887.19;4980919;28;20522;-52
2022/08/09 03:26:19;;;;;;;9.82;5.95;;;;;;;17.75;69.30;102889.94;4977428;28;20034;-53
2022/08/09 03:28:50;;;;;;;8.82;5.70;;;;;;;17.77;69.31;102885.56;4980719;28;20040;-49
2022/08/09 03:31:18;;;;;;;8.55;5.53;;;;;;;17.76;68.98;102892.59;4967922;28;20860;-54
2022/08/09 03:33:45;;;;;;;8.68;6.10;;;;;;;17.73;69.30;102889.03;4985531;28;20040;-56
2022/08/09 03:36:11;;;;;;;8.77;5.95;;;;;;;17.72;68.95;102898.69;4970666;28;20091;-52
2022/08/09 03:38:50;;;;;;;8.55;5.75;;;;;;;17.73;69.27;102892.56;4983009;28;20053;-53
2022/08/09 03:41:15;;;;;;;8.50;6.18;;;;;;;17.81;69.01;102898.84;4976281;28;20345;-54
2022/08/09 03:43:41;;;;;;;9.60;6.20;;;;;;;17.88;68.87;102904.19;4977022;28;20893;-50
2022/08/09 03:46:09;;;;;;;9.57;6.50;;;;;;;17.87;69.52;102905.09;4989150;28;20124;-52
2022/08/09 03:48:36;;;;;;;12.98;6.80;;;;;;;17.80;69.92;102909.38;4982512;28;20063;-50
2022/08/09 03:51:06;;;;;;;10.68;7.05;;;;;;;17.62;70.62;102903.81;4972690;28;21001;-50
2022/08/09 03:53:32;;;;;;;12.77;6.72;;;;;;;17.55;71.22;102900.16;4977266;28;20046;-53
2022/08/09 03:55:58;;;;;;;9.50;6.32;;;;;;;17.67;70.78;102900.38;4985617;28;20071;-52
2022/08/09 03:58:23;;;;;;;10.38;6.60;;;;;;;17.71;70.31;102912.75;4975585;28;20134;-52
2022/08/09 04:00:49;;;;;;;10.75;6.60;;;;;;;17.72;70.30;102916.28;4974003;28;20428;-54
2022/08/09 04:03:16;;;;;;;9.85;6.55;;;;;;;17.75;70.35;102918.94;4981167;28;20633;-53
2022/08/09 04:05:42;;;;;;;8.98;5.85;;;;;;;17.77;69.67;102920.75;4980014;28;20037;-53
2022/08/09 04:08:07;;;;;;;9.75;6.20;;;;;;;17.72;69.41;102918.91;4980561;28;20710;-52
2022/08/09 04:10:33;;;;;;;9.98;5.63;;;;;;;17.69;69.59;102918.84;4985143;28;20957;-54
2022/08/09 04:13:08;;;;;;;9.00;6.28;;;;;;;17.69;69.54;102919.75;4966531;28;20022;-53
2022/08/09 04:15:33;;;;;;;11.07;6.28;;;;;;;17.68;70.04;102925.03;4984604;28;20018;-53
2022/08/09 04:17:59;;;;;;;9.75;5.75;;;;;;;17.75;69.82;102930.41;4986373;28;20763;-52
2022/08/09 04:20:24;;;;;;;12.20;6.75;;;;;;;17.76;69.88;102926.91;4974249;28;20328;-53
2022/08/09 04:22:53;;;;;;;10.63;5.97;;;;;;;17.81;69.70;102927.84;4980914;28;20037;-53
2022/08/09 04:25:18;;;;;;;9.18;5.88;;;;;;;17.75;70.13;102935.66;4981706;28;20050;-52
2022/08/09 04:27:44;;;;;;;8.88;5.78;;;;;;;17.78;69.89;102938.38;4985255;28;20044;-53
2022/08/09 04:30:12;;;;;;;8.73;5.70;;;;;;;17.82;69.66;102941.94;4978499;28;20109;-49
2022/08/09 04:32:38;;;;;;;8.10;5.13;;;;;;;17.86;69.42;102935.88;4969319;28;20072;-50
2022/08/09 04:35:06;;;;;;;9.95;5.53;;;;;;;17.90;69.56;102945.59;4978490;28;20484;-53
2022/08/09 04:37:32;;;;;;;9.05;5.65;;;;;;;17.91;69.66;102942.09;4978448;28;20050;-50
2022/08/09 04:39:57;;;;;;;12.63;6.13;;;;;;;17.97;69.17;102950.13;4989341;28;21000;-54
2022/08/09 04:42:28;;;;;;;9.02;5.78;;;;;;;17.99;69.60;102952.78;4976225;28;20037;-52
2022/08/09 04:44:54;;;;;;;10.23;5.55;;;;;;;18.00;69.77;102947.50;4980560;28;20041;-53
2022/08/09 04:47:24;;;;;;;8.38;5.57;;;;;;;18.03;69.15;102944.03;4984283;28;20040;-53
2022/08/09 04:49:50;;;;;;;7.00;5.07;;;;;;;18.02;69.19;102947.53;4974777;28;20415;-50
2022/08/09 04:52:37;;;;;;;8.30;5.68;;;;;;;18.07;69.19;102948.50;4986850;28;20420;-51
2022/08/09 04:55:03;;;;;;;9.13;5.47;;;;;;;18.10;69.11;102945.91;4978514;28;20531;-52
2022/08/09 04:57:29;;;;;;;7.97;5.03;;;;;;;18.20;68.83;102948.72;4976996;28;20030;-51
2022/08/09 04:59:55;;;;;;;10.77;5.90;;;;;;;18.22;68.89;102948.75;4979412;28;20041;-54
2022/08/09 05:02:27;;;;;;;8.63;5.40;;;;;;;18.28;68.57;102948.84;4974294;28;20069;-49
2022/08/09 05:04:53;;;;;;;9.00;5.50;;;;;;;18.30;68.48;102952.34;4976251;28;20091;-53
2022/08/09 05:07:19;;;;;;;8.50;5.22;;;;;;;18.34;68.44;102953.31;4969427;28;20436;-51
2022/08/09 05:09:44;;;;;;;9.23;5.75;;;;;;;18.47;68.43;102949.97;4990225;28;20037;-51
2022/08/09 05:12:09;;;;;;;9.82;5.63;;;;;;;18.55;68.78;102956.28;4975623;28;20099;-53
2022/08/09 05:14:36;;;;;;;6.85;5.00;;;;;;;18.62;69.12;102960.78;4985617;28;20821;-52
2022/08/09 05:17:01;;;;;;;7.85;5.45;;;;;;;18.70;68.94;102955.59;4964078;28;20400;-52
2022/08/09 05:19:28;;;;;;;6.82;5.10;;;;;;;18.84;69.11;102951.38;4986300;28;20928;-51
2022/08/09 05:21:54;;;;;;;9.50;4.90;;;;;;;18.89;68.92;102949.69;4978989;28;20053;-52
2022/08/09 05:24:19;;;;;;;7.35;5.15;;;;;;;18.73;68.91;102955.63;4981314;28;20516;-53
2022/08/09 05:26:48;;;;;;;8.98;5.30;;;;;;;18.88;68.76;102954.06;4972963;28;20850;-57
2022/08/09 05:29:20;;;;;;;8.07;5.35;;;;;;;19.19;68.12;102950.03;4972535;28;20515;-51
2022/08/09 05:31:46;;;;;;;11.07;5.40;;;;;;;18.85;69.49;102950.50;4974116;28;20037;-50
2022/08/09 05:34:21;;;;;;;7.63;5.25;;;;;;;19.29;68.50;102945.72;4979940;28;20032;-50
2022/08/09 05:36:47;;;;;;;7.97;5.25;;;;;;;19.31;67.52;102947.50;4982645;28;20625;-54
2022/08/09 05:39:14;;;;;;;9.93;5.35;;;;;;;19.83;66.93;102954.19;4986550;28;20034;-50
2022/08/09 05:41:39;;;;;;;8.88;5.38;;;;;;;19.85;66.03;102957.75;4974641;28;20033;-49
2022/08/09 05:44:05;;;;;;;8.82;5.00;;;;;;;20.07;65.10;102960.53;4978891;28;20050;-54
2022/08/09 05:46:30;;;;;;;8.23;5.03;;;;;;;19.97;65.63;102956.06;4981728;28;20044;-54
2022/08/09 05:48:56;;;;;;;9.80;5.07;;;;;;;19.91;65.86;102962.19;4969539;28;20028;-49
2022/08/09 05:51:21;;;;;;;8.82;5.65;;;;;;;19.68;66.33;102967.31;4973162;28;20037;-51
2022/08/09 05:53:48;;;;;;;9.50;5.53;;;;;;;19.96;65.61;102963.13;4985628;28;20053;-54
2022/08/09 05:56:14;;;;;;;8.60;5.90;;;;;;;19.69;66.50;102970.84;4975557;28;20037;-49
2022/08/09 05:58:42;;;;;;;11.07;5.57;;;;;;;19.62;66.82;102982.22;4986024;28;20713;-53
2022/08/09 06:01:09;;;;;;;9.25;5.57;;;;;;;19.79;66.66;102972.69;4970686;28;20050;-53
2022/08/09 06:03:35;;;;;;;12.32;6.10;;;;;;;19.95;65.71;102969.28;4988193;28;20049;-52
2022/08/09 06:06:00;;;;;;;9.02;5.60;;;;;;;20.04;66.29;102981.72;4988767;28;20415;-52
2022/08/09 06:08:26;;;;;;;7.95;5.25;;;;;;;20.12;66.10;102988.84;4967822;28;20065;-49
2022/08/09 06:10:54;;;;;;;11.90;5.50;;;;;;;19.72;66.12;102990.25;4970508;28;20812;-52
2022/08/09 06:13:19;;;;;;;11.50;6.20;;;;;;;19.73;67.02;102989.41;4979451;28;20056;-52
2022/08/09 06:15:45;;;;;;;11.52;6.15;;;;;;;20.06;66.41;102994.09;4969837;28;20026;-51
2022/08/09 06:18:19;;;;;;;9.50;5.85;;;;;;;20.35;64.80;102994.34;4987502;28;20078;-52
2022/08/09 06:20:45;;;;;;;7.88;5.45;;;;;;;22.37;58.64;102999.31;4978638;28;20045;-50
2022/08/09 06:23:10;;;;;;;9.32;5.63;;;;;;;22.65;57.49;102993.91;4987460;28;20439;-53
2022/08/09 06:25:36;;;;;;;9.18;5.90;;;;;;;23.70;54.45;102985.44;4977188;28;20042;-53
2022/08/09 06:28:01;;;;;;;8.18;5.38;;;;;;;25.20;50.64;102988.28;4981618;28;20068;-54
2022/08/09 06:30:27;;;;;;;8.73;5.22;;;;;;;24.94;51.78;102990.44;4970925;28;20405;-52
2022/08/09 06:32:54;;;;;;;7.97;5.13;;;;;;;25.83;48.48;102988.25;4972915;28;20064;-52
2022/08/09 06:35:20;;;;;;;9.13;5.45;;;;;;;25.28;49.32;102997.06;4974631;28;20025;-52
2022/08/09 06:37:45;;;;;;;10.15;4.90;;;;;;;26.50;46.39;102993.28;4984324;28;20063;-50
2022/08/09 06:40:11;;;;;;;8.57;4.63;;;;;;;27.93;42.29;102990.09;4968269;28;20739;-51
2022/08/09 06:42:37;;;;;;;9.85;5.05;;;;;;;27.12;44.75;102999.16;4977150;28;20179;-51
2022/08/09 06:45:06;;;;;;;7.38;4.70;;;;;;;27.45;43.85;102997.50;4974203;28;20512;-54
2022/08/09 06:47:31;;;;;;;8.63;4.53;;;;;;;28.54;41.47;102996.53;4979125;28;20504;-56
2022/08/09 06:49:57;;;;;;;7.43;4.15;;;;;;;28.86;40.83;102999.19;4962597;28;20041;-55
2022/08/09 06:52:22;;;;;;;6.40;4.38;;;;;;;28.38;41.33;102993.38;4983119;28;20068;-56
2022/08/09 06:54:49;;;;;;;6.40;3.85;;;;;;;28.88;40.19;103000.03;4974799;28;20068;-55
2022/08/09 06:57:16;;;;;;;6.28;4.10;;;;;;;28.45;40.86;103010.19;4975539;28;20095;-56
2022/08/09 06:59:42;;;;;;;5.68;4.00;;;;;;;28.01;42.79;102998.81;4985089;28;20053;-57
2022/08/09 07:02:07;;;;;;;7.40;4.03;;;;;;;27.65;43.27;103000.63;4980176;28;20179;-57
2022/08/09 07:04:33;;;;;;;6.55;3.90;;;;;;;28.28;41.48;103005.28;4975125;28;20503;-56
2022/08/09 07:06:59;;;;;;;7.20;3.90;;;;;;;27.82;42.55;103006.44;4978288;28;20079;-54
2022/08/09 07:09:24;;;;;;;10.63;3.95;;;;;;;27.29;42.74;103010.38;4973544;28;20053;-57
2022/08/09 07:11:49;;;;;;;4.57;3.35;;;;;;;28.65;41.09;103006.03;4980616;28;20083;-55
2022/08/09 07:14:19;;;;;;;5.32;3.65;;;;;;;28.98;40.28;103003.31;4989842;28;20036;-58
2022/08/09 07:16:45;;;;;;;6.47;3.70;;;;;;;28.50;41.43;103006.47;4963614;28;20892;-59
2022/08/09 07:19:12;;;;;;;6.10;3.67;;;;;;;29.20;39.92;103020.56;4980378;28;20036;-60
2022/08/09 07:21:38;;;;;;;7.53;3.90;;;;;;;27.11;43.52;103018.81;4982270;28;20441;-55
2022/08/09 07:24:04;;;;;;;5.53;3.38;;;;;;;28.41;41.88;103014.78;4980476;28;20123;-55
2022/08/09 07:26:30;;;;;;;5.88;3.28;;;;;;;29.80;38.08;103006.09;4968657;28;20603;-56
2022/08/09 07:28:57;;;;;;;4.43;2.70;;;;;;;30.02;36.97;103001.78;4971867;28;20561;-54
2022/08/09 07:31:23;;;;;;;5.43;2.85;;;;;;;30.04;37.26;102999.03;4986388;28;20519;-54
2022/08/09 07:33:48;;;;;;;5.25;2.45;;;;;;;30.53;36.41;102998.19;4985695;28;20041;-54
2022/08/09 07:36:15;;;;;;;4.30;2.40;;;;;;;30.03;36.48;102994.59;4991142;28;20030;-55
2022/08/09 07:38:40;;;;;;;4.25;2.30;;;;;;;30.06;36.69;102984.63;4979982;28;20422;-57
2022/08/09 07:41:06;;;;;;;4.07;2.50;;;;;;;29.35;37.88;102984.28;4986766;28;20033;-55
2022/08/09 07:43:33;;;;;;;3.95;2.00;;;;;;;30.04;37.56;102980.22;4982411;28;20602;-55
2022/08/09 07:45:58;;;;;;;4.38;2.20;;;;;;;30.33;35.43;102992.63;4992460;28;20381;-56
2022/08/09 07:48:24;;;;;;;4.15;1.90;;;;;;;29.03;36.64;102991.50;4983851;28;20553;-55
2022/08/09 07:50:52;;;;;;;4.20;1.95;;;;;;;27.08;40.72;102991.25;4969442;28;20028;-55
2022/08/09 07:53:18;;;;;;;3.78;2.28;;;;;;;26.80;42.43;102996.25;4985211;28;20045;-54
2022/08/09 07:55:43;;;;;;;4.95;2.25;;;;;;;28.11;38.70;102989.63;4994346;28;20033;-55
2022/08/09 07:58:09;;;;;;;7.15;2.30;;;;;;;27.76;40.44;102997.66;4976063;28;20064;-56
2022/08/09 08:00:36;;;;;;;3.75;2.00;;;;;;;27.82;39.05;102986.78;4981972;28;20040;-55
2022/08/09 08:03:02;;;;;;;4.25;1.90;;;;;;;28.71;37.52;102996.03;4962287;28;20449;-55
2022/08/09 08:05:28;;;;;;;2.55;1.60;;;;;;;29.15;36.46;102989.38;4980824;28;20061;-53
2022/08/09 08:07:54;;;;;;;5.90;2.03;;;;;;;28.89;37.45;102999.09;4974316;28;20115;-53
2022/08/09 08:10:21;;;;;;;3.03;1.70;;;;;;;29.80;36.58;103008.78;4981965;28;20504;-55
2022/08/09 08:12:47;;;;;;;3.25;2.00;;;;;;;30.52;33.97;103007.19;4976918;28;20039;-55
2022/08/09 08:15:18;;;;;;;4.15;2.00;;;;;;;28.83;36.44;103007.34;4981577;28;20045;-56
2022/08/09 08:17:51;;;;;;;2.88;1.50;;;;;;;29.47;35.22;103001.81;4951048;28;20349;-55
2022/08/09 08:20:19;;;;;;;6.35;1.50;;;;;;;29.10;35.56;103002.94;4971209;28;20103;-52
2022/08/09 08:22:47;;;;;;;2.90;1.70;;;;;;;28.15;37.11;103007.41;4973062;28;20048;-54
2022/08/09 08:25:16;;;;;;;2.97;1.40;;;;;;;28.07;38.84;103005.81;4974975;28;20028;-55
2022/08/09 08:27:42;;;;;;;3.72;1.65;;;;;;;27.99;37.37;103006.03;4962264;28;20440;-55
2022/08/09 08:30:09;;;;;;;3.95;1.50;;;;;;;27.50;39.65;103002.78;4969828;28;20030;-53
2022/08/09 08:32:34;;;;;;;4.45;1.70;;;;;;;27.35;39.75;102999.53;4978097;28;20037;-53
2022/08/09 08:35:01;;;;;;;3.53;1.83;;;;;;;26.96;40.08;103000.38;4951006;28;20392;-55
2022/08/09 08:37:27;;;;;;;3.85;1.80;;;;;;;26.85;39.97;103005.94;4976620;28;20175;-54
2022/08/09 08:39:53;;;;;;;4.13;1.42;;;;;;;26.20;41.33;103008.09;4981050;28;20877;-55
2022/08/09 08:42:20;;;;;;;2.33;1.25;;;;;;;26.19;40.53;103003.63;4964923;28;20538;-54
2022/08/09 08:44:50;;;;;;;2.67;1.27;;;;;;;25.95;40.57;103005.84;4966986;28;20060;-57
2022/08/09 08:47:16;;;;;;;3.30;1.48;;;;;;;25.46;41.40;103004.81;4975166;28;20034;-55
2022/08/09 08:49:42;;;;;;;2.95;1.60;;;;;;;25.47;42.23;102995.03;4975475;28;20049;-56
2022/08/09 08:52:10;;;;;;;3.58;1.60;;;;;;;25.84;43.19;103003.38;4945850;28;20064;-55
2022/08/09 08:54:36;;;;;;;5.40;1.60;;;;;;;26.00;41.83;102994.19;4978773;28;20033;-54
2022/08/09 08:57:05;;;;;;;3.50;1.60;;;;;;;26.10;42.48;103006.50;4978486;28;20515;-52
2022/08/09 08:59:31;;;;;;;8.32;1.85;;;;;;;25.35;42.94;103020.13;4978530;28;20510;-54
2022/08/09 09:02:03;;;;;;;3.25;1.50;;;;;;;25.79;42.14;103011.47;4983190;28;20103;-54
2022/08/09 09:04:31;;;;;;;2.85;1.30;;;;;;;26.22;40.97;103008.94;4984278;28;20041;-54
2022/08/09 09:07:01;;;;;;;2.97;1.40;;;;;;;25.95;40.73;103016.56;4966879;28;20095;-51
2022/08/09 09:09:29;;;;;;;3.92;1.50;;;;;;;25.86;41.12;103021.13;4989311;28;20029;-54
2022/08/09 09:11:57;;;;;;;3.03;1.38;;;;;;;26.04;40.56;103013.72;4976783;28;20036;-55
2022/08/09 09:14:25;;;;;;;3.53;1.30;;;;;;;25.98;39.87;103011.16;4986673;28;20113;-54
2022/08/09 09:16:52;;;;;;;2.80;1.30;;;;;;;25.19;41.39;103029.22;4989579;28;20048;-53
2022/08/09 09:19:18;;;;;;;3.28;1.50;;;;;;;25.71;40.72;103004.47;4985499;28;20038;-53
2022/08/09 09:22:12;;;;;;;2.60;1.33;;;;;;;25.34;41.45;103020.13;4985159;28;20441;-53
2022/08/09 09:24:53;;;;;;;3.05;1.50;;;;;;;25.70;41.25;103008.94;4989779;28;20045;-53
2022/08/09 09:27:26;;;;;;;4.53;1.25;;;;;;;25.60;40.45;103010.00;4991921;28;20599;-55
2022/08/09 09:29:53;;;;;;;2.60;1.27;;;;;;;26.02;40.17;103011.09;4987724;28;20871;-56
2022/08/09 09:32:25;;;;;;;4.53;1.50;;;;;;;26.00;40.29;103007.53;4986350;28;20033;-54
2022/08/09 09:35:07;;;;;;;1.98;1.15;;;;;;;25.86;39.43;103018.47;4978255;28;20057;-54
2022/08/09 09:37:33;;;;;;;2.03;1.20;;;;;;;26.14;38.04;103010.88;4985780;28;20033;-54
2022/08/09 09:39:58;;;;;;;6.45;1.38;;;;;;;26.03;38.41;103001.28;4992891;28;20138;-53
2022/08/09 09:42:27;;;;;;;3.80;1.30;;;;;;;26.02;38.21;103016.44;4977740;28;20167;-54
2022/08/09 09:44:58;;;;;;;3.17;1.30;;;;;;;26.22;38.12;103021.44;4980856;28;20105;-54
2022/08/09 09:47:25;;;;;;;8.23;1.40;;;;;;;26.48;39.89;103023.63;4984210;28;20131;-57
2022/08/09 09:50:00;;;;;;;3.28;1.30;;;;;;;26.72;39.63;103022.28;4998042;28;20268;-57
2022/08/09 09:52:27;;;;;;;1.85;1.10;;;;;;;26.84;37.30;103024.69;4987297;28;20045;-58
2022/08/09 09:55:07;;;;;;;2.13;1.20;;;;;;;26.57;36.81;103027.03;4975188;28;20033;-58
2022/08/09 09:57:33;;;;;;;4.80;1.15;;;;;;;26.92;36.76;103015.66;4990336;28;20057;-54
2022/08/09 09:59:59;;;;;;;2.33;0.90;;;;;;;26.74;37.09;103015.09;4960936;28;20800;-53
2022/08/09 10:02:25;;;;;;;3.60;1.02;;;;;;;26.56;36.45;103017.25;4993548;28;20037;-55
2022/08/09 10:05:07;;;;;;;1.52;0.90;;;;;;;26.62;36.26;103014.44;4979289;28;20514;-56
2022/08/09 10:07:33;;;;;;;2.50;1.00;;;;;;;26.94;36.68;103013.84;4985269;28;20534;-55
2022/08/09 10:09:59;;;;;;;4.38;1.00;;;;;;;27.05;34.96;103011.81;4977684;28;20045;-57
2022/08/09 10:12:32;;;;;;;2.55;1.15;;;;;;;26.95;34.98;103012.94;4985969;28;20037;-54
2022/08/09 10:15:14;;;;;;;2.17;1.10;;;;;;;26.98;35.77;103002.13;4976839;28;20044;-54
2022/08/09 10:17:40;;;;;;;2.15;1.20;;;;;;;26.56;36.52;102998.50;4991117;28;20354;-54
2022/08/09 10:20:16;;;;;;;5.65;0.82;;;;;;;26.84;34.18;103003.28;4991534;28;20052;-53
2022/08/09 10:22:43;;;;;;;2.90;0.80;;;;;;;27.02;35.34;102994.91;4986844;28;20064;-54
2022/08/09 10:25:09;;;;;;;2.67;1.00;;;;;;;26.80;36.29;102994.47;4981245;28;20103;-55
2022/08/09 10:27:35;;;;;;;1.88;1.10;;;;;;;27.40;35.05;102994.03;4971174;28;20065;-55
2022/08/09 10:30:03;;;;;;;1.00;0.82;;;;;;;27.35;35.47;102996.84;4991670;28;20037;-54
2022/08/09 10:32:29;;;;;;;3.08;1.17;;;;;;;26.38;36.99;102998.88;4983987;28;20380;-53
2022/08/09 10:34:55;;;;;;;2.80;1.30;;;;;;;26.54;37.73;102997.66;4980183;28;20550;-54
2022/08/09 10:37:22;;;;;;;2.15;1.00;;;;;;;26.89;36.12;102996.09;4991712;28;20018;-53
2022/08/09 10:39:52;;;;;;;4.22;1.10;;;;;;;27.02;37.54;102997.59;4978599;28;20053;-53
2022/08/09 10:42:17;;;;;;;4.75;1.20;;;;;;;27.34;36.52;102983.47;4994038;28;20076;-52
2022/08/09 10:44:56;;;;;;;2.75;1.02;;;;;;;27.16;35.18;102989.25;4980224;28;20034;-54
2022/08/09 10:47:44;;;;;;;2.08;0.95;;;;;;;27.24;35.44;103003.38;4977694;28;20136;-53
2022/08/09 10:53:36;;;;;;;1.70;1.10;;;;;;;27.14;35.21;102994.63;4986364;28;20173;-51
2022/08/09 10:56:16;;;;;;;3.45;1.05;;;;;;;27.31;35.55;102979.09;4972596;28;20061;-54
2022/08/09 10:58:46;;;;;;;1.70;0.90;;;;;;;27.12;35.18;102993.81;4978213;28;20033;-54
2022/08/09 11:01:30;;;;;;;2.65;0.93;;;;;;;27.83;34.28;102984.09;4981933;28;20038;-52
2022/08/09 11:04:14;;;;;;;2.78;0.93;;;;;;;27.42;35.05;102989.53;4974996;28;21072;-56
2022/08/09 11:06:44;;;;;;;3.53;1.10;;;;;;;27.52;34.75;102982.19;4976891;28;21146;-56
2022/08/09 11:09:14;;;;;;;5.88;0.90;;;;;;;27.64;34.33;102976.53;4969577;28;20053;-54
2022/08/09 11:11:56;;;;;;;2.40;0.90;;;;;;;27.65;33.89;102981.88;4986079;28;20029;-58
2022/08/09 11:14:57;;;;;;;1.85;0.90;;;;;;;27.80;35.00;102980.63;4976629;28;20057;-54
2022/08/09 11:17:26;;;;;;;2.00;0.90;;;;;;;27.68;35.63;102980.91;4969825;28;20419;-53
2022/08/09 11:20:00;;;;;;;1.50;1.00;;;;;;;27.67;35.65;102977.34;4976899;28;21214;-54
2022/08/09 11:22:44;;;;;;;1.98;1.00;;;;;;;27.60;34.22;102975.75;4976643;28;20053;-56
2022/08/09 11:25:13;;;;;;;4.38;1.10;;;;;;;27.41;35.06;102988.66;4969276;28;20040;-54
2022/08/09 11:27:46;;;;;;;2.25;0.90;;;;;;;27.32;35.08;102988.91;4992059;28;20033;-56
2022/08/09 11:30:15;;;;;;;2.72;1.10;;;;;;;27.25;35.37;102984.59;4980534;28;20037;-56
2022/08/09 11:32:59;;;;;;;2.85;1.00;;;;;;;27.92;34.37;102979.41;4990434;28;20463;-57
2022/08/09 11:35:31;;;;;;;1.40;1.00;;;;;;;28.09;34.58;102978.06;4966817;28;20029;-56